sensor_id;sensor_type;location;lat;lon;timestamp;P1;durP1;ratioP1;P2;durP2;ratioP2
15295;SDS011;7749;49.964;7.890;2023-04-28T00:00:02;7.77;;;4.03;;
15295;SDS011;7749;49.964;7.890;2023-04-28T00:02:31;7.67;;;3.80;;
15295;SDS011;7749;49.964;7.890;2023-04-28T00:05:00;6.60;;;4.10;;
15295;SDS011;7749;49.964;7.890;2023-04-28T00:07:40;8.03;;;4.27;;
15295;SDS011;7749;49.964;7.890;2023-04-28T00:10:39;5.37;;;3.80;;
15295;SDS011;7749;49.964;7.890;2023-04-28T00:13:26;5.53;;;4.00;;
15295;SDS011;7749;49.964;7.890;2023-04-28T00:16:08;7.37;;;4.00;;
15295;SDS011;7749;49.964;7.890;2023-04-28T00:18:39;6.70;;;4.30;;
15295;SDS011;7749;49.964;7.890;2023-04-28T00:21:21;5.07;;;3.83;;
15295;SDS011;7749;49.964;7.890;2023-04-28T00:23:53;6.63;;;4.13;;
15295;SDS011;7749;49.964;7.890;2023-04-28T00:26:26;6.07;;;4.53;;
15295;SDS011;7749;49.964;7.890;2023-04-28T00:29:01;7.83;;;5.10;;
15295;SDS011;7749;49.964;7.890;2023-04-28T00:31:33;7.63;;;5.00;;
15295;SDS011;7749;49.964;7.890;2023-04-28T00:34:15;6.73;;;4.83;;
15295;SDS011;7749;49.964;7.890;2023-04-28T00:36:53;10.03;;;4.97;;
15295;SDS011;7749;49.964;7.890;2023-04-28T00:39:31;6.27;;;4.53;;
15295;SDS011;7749;49.964;7.890;2023-04-28T00:42:02;7.53;;;5.20;;
15295;SDS011;7749;49.964;7.890;2023-04-28T00:44:40;7.73;;;5.17;;
15295;SDS011;7749;49.964;7.890;2023-04-28T00:47:10;6.27;;;4.87;;
15295;SDS011;7749;49.964;7.890;2023-04-28T00:49:44;9.57;;;7.67;;
15295;SDS011;7749;49.964;7.890;2023-04-28T00:52:14;15.73;;;10.97;;
15295;SDS011;7749;49.964;7.890;2023-04-28T00:54:50;18.13;;;16.23;;
15295;SDS011;7749;49.964;7.890;2023-04-28T00:57:32;9.87;;;6.10;;
15295;SDS011;7749;49.964;7.890;2023-04-28T01:00:04;6.33;;;5.20;;
15295;SDS011;7749;49.964;7.890;2023-04-28T01:02:32;11.00;;;5.40;;
15295;SDS011;7749;49.964;7.890;2023-04-28T01:05:07;9.20;;;5.70;;
15295;SDS011;7749;49.964;7.890;2023-04-28T01:07:42;8.10;;;5.73;;
15295;SDS011;7749;49.964;7.890;2023-04-28T01:10:16;6.63;;;6.03;;
15295;SDS011;7749;49.964;7.890;2023-04-28T01:12:52;9.90;;;6.33;;
15295;SDS011;7749;49.964;7.890;2023-04-28T01:15:28;7.57;;;5.63;;
15295;SDS011;7749;49.964;7.890;2023-04-28T01:18:02;7.83;;;5.70;;
15295;SDS011;7749;49.964;7.890;2023-04-28T01:20:33;8.23;;;5.97;;
15295;SDS011;7749;49.964;7.890;2023-04-28T01:23:07;11.67;;;6.20;;
15295;SDS011;7749;49.964;7.890;2023-04-28T01:25:39;7.30;;;6.53;;
15295;SDS011;7749;49.964;7.890;2023-04-28T01:28:15;13.10;;;9.43;;
15295;SDS011;7749;49.964;7.890;2023-04-28T01:30:43;19.13;;;15.60;;
15295;SDS011;7749;49.964;7.890;2023-04-28T01:33:11;9.47;;;7.00;;
15295;SDS011;7749;49.964;7.890;2023-04-28T01:35:42;7.63;;;6.10;;
15295;SDS011;7749;49.964;7.890;2023-04-28T01:38:23;7.07;;;5.60;;
15295;SDS011;7749;49.964;7.890;2023-04-28T01:40:53;7.23;;;5.90;;
15295;SDS011;7749;49.964;7.890;2023-04-28T01:43:25;10.57;;;7.10;;
15295;SDS011;7749;49.964;7.890;2023-04-28T01:46:02;6.20;;;5.60;;
15295;SDS011;7749;49.964;7.890;2023-04-28T01:48:41;9.50;;;6.80;;
15295;SDS011;7749;49.964;7.890;2023-04-28T01:51:13;47.83;;;28.63;;
15295;SDS011;7749;49.964;7.890;2023-04-28T01:53:58;93.07;;;46.53;;
15295;SDS011;7749;49.964;7.890;2023-04-28T01:56:35;33.90;;;20.63;;
15295;SDS011;7749;49.964;7.890;2023-04-28T01:59:07;9.83;;;7.60;;
15295;SDS011;7749;49.964;7.890;2023-04-28T02:01:39;8.53;;;6.27;;
15295;SDS011;7749;49.964;7.890;2023-04-28T02:04:09;10.03;;;6.70;;
15295;SDS011;7749;49.964;7.890;2023-04-28T02:06:47;10.80;;;8.57;;
15295;SDS011;7749;49.964;7.890;2023-04-28T02:09:28;13.40;;;8.27;;
15295;SDS011;7749;49.964;7.890;2023-04-28T02:12:01;9.27;;;7.63;;
15295;SDS011;7749;49.964;7.890;2023-04-28T02:14:29;11.33;;;7.63;;
15295;SDS011;7749;49.964;7.890;2023-04-28T02:16:59;12.57;;;8.20;;
15295;SDS011;7749;49.964;7.890;2023-04-28T02:19:32;12.07;;;8.40;;
15295;SDS011;7749;49.964;7.890;2023-04-28T02:22:22;6.93;;;6.10;;
15295;SDS011;7749;49.964;7.890;2023-04-28T02:25:07;10.47;;;6.90;;
15295;SDS011;7749;49.964;7.890;2023-04-28T02:27:35;7.70;;;6.07;;
15295;SDS011;7749;49.964;7.890;2023-04-28T02:30:13;9.37;;;6.20;;
15295;SDS011;7749;49.964;7.890;2023-04-28T02:32:53;7.63;;;6.37;;
15295;SDS011;7749;49.964;7.890;2023-04-28T02:35:34;7.33;;;6.53;;
15295;SDS011;7749;49.964;7.890;2023-04-28T02:38:07;8.13;;;6.10;;
15295;SDS011;7749;49.964;7.890;2023-04-28T02:40:41;10.47;;;6.70;;
15295;SDS011;7749;49.964;7.890;2023-04-28T02:43:27;11.03;;;7.10;;
15295;SDS011;7749;49.964;7.890;2023-04-28T02:48:43;7.20;;;6.50;;
15295;SDS011;7749;49.964;7.890;2023-04-28T02:51:15;6.93;;;6.23;;
15295;SDS011;7749;49.964;7.890;2023-04-28T02:53:47;8.83;;;6.00;;
15295;SDS011;7749;49.964;7.890;2023-04-28T02:56:28;8.60;;;5.40;;
15295;SDS011;7749;49.964;7.890;2023-04-28T02:59:08;7.93;;;5.60;;
15295;SDS011;7749;49.964;7.890;2023-04-28T03:01:45;6.03;;;5.20;;
15295;SDS011;7749;49.964;7.890;2023-04-28T03:04:20;7.23;;;5.50;;
15295;SDS011;7749;49.964;7.890;2023-04-28T03:06:55;6.40;;;5.47;;
15295;SDS011;7749;49.964;7.890;2023-04-28T03:09:35;7.30;;;5.00;;
15295;SDS011;7749;49.964;7.890;2023-04-28T03:12:05;12.13;;;5.60;;
15295;SDS011;7749;49.964;7.890;2023-04-28T03:14:50;8.00;;;5.47;;
15295;SDS011;7749;49.964;7.890;2023-04-28T03:17:18;7.47;;;6.00;;
15295;SDS011;7749;49.964;7.890;2023-04-28T03:19:54;7.57;;;5.53;;
15295;SDS011;7749;49.964;7.890;2023-04-28T03:22:30;7.73;;;5.90;;
15295;SDS011;7749;49.964;7.890;2023-04-28T03:25:09;7.47;;;5.40;;
15295;SDS011;7749;49.964;7.890;2023-04-28T03:27:46;8.60;;;5.57;;
15295;SDS011;7749;49.964;7.890;2023-04-28T03:30:17;9.37;;;5.53;;
15295;SDS011;7749;49.964;7.890;2023-04-28T03:32:47;7.93;;;5.17;;
15295;SDS011;7749;49.964;7.890;2023-04-28T03:35:18;7.03;;;5.50;;
15295;SDS011;7749;49.964;7.890;2023-04-28T03:37:58;7.30;;;5.53;;
15295;SDS011;7749;49.964;7.890;2023-04-28T03:40:32;6.27;;;5.30;;
15295;SDS011;7749;49.964;7.890;2023-04-28T03:43:00;6.07;;;5.27;;
15295;SDS011;7749;49.964;7.890;2023-04-28T03:45:35;7.03;;;6.23;;
15295;SDS011;7749;49.964;7.890;2023-04-28T03:48:27;8.23;;;6.00;;
15295;SDS011;7749;49.964;7.890;2023-04-28T03:51:02;8.83;;;6.57;;
15295;SDS011;7749;49.964;7.890;2023-04-28T03:53:35;10.00;;;6.80;;
15295;SDS011;7749;49.964;7.890;2023-04-28T03:56:14;8.97;;;6.77;;
15295;SDS011;7749;49.964;7.890;2023-04-28T03:58:42;10.17;;;6.50;;
15295;SDS011;7749;49.964;7.890;2023-04-28T04:01:13;8.80;;;6.30;;
15295;SDS011;7749;49.964;7.890;2023-04-28T04:03:56;7.83;;;6.87;;
15295;SDS011;7749;49.964;7.890;2023-04-28T04:06:47;9.10;;;5.97;;
15295;SDS011;7749;49.964;7.890;2023-04-28T04:09:27;7.60;;;6.80;;
15295;SDS011;7749;49.964;7.890;2023-04-28T04:12:13;9.60;;;6.90;;
15295;SDS011;7749;49.964;7.890;2023-04-28T04:14:55;10.60;;;7.30;;
15295;SDS011;7749;49.964;7.890;2023-04-28T04:17:23;8.37;;;6.50;;
15295;SDS011;7749;49.964;7.890;2023-04-28T04:19:54;10.03;;;7.13;;
15295;SDS011;7749;49.964;7.890;2023-04-28T04:22:34;7.63;;;6.20;;
15295;SDS011;7749;49.964;7.890;2023-04-28T04:25:07;9.73;;;7.13;;
15295;SDS011;7749;49.964;7.890;2023-04-28T04:27:41;10.10;;;7.03;;
15295;SDS011;7749;49.964;7.890;2023-04-28T04:30:10;10.13;;;6.93;;
15295;SDS011;7749;49.964;7.890;2023-04-28T04:32:46;9.60;;;7.07;;
15295;SDS011;7749;49.964;7.890;2023-04-28T04:35:17;10.33;;;7.60;;
15295;SDS011;7749;49.964;7.890;2023-04-28T04:37:44;8.73;;;7.70;;
15295;SDS011;7749;49.964;7.890;2023-04-28T04:40:12;11.60;;;7.90;;
15295;SDS011;7749;49.964;7.890;2023-04-28T04:42:40;9.10;;;6.93;;
15295;SDS011;7749;49.964;7.890;2023-04-28T04:45:07;10.67;;;7.30;;
15295;SDS011;7749;49.964;7.890;2023-04-28T04:47:35;11.17;;;7.60;;
15295;SDS011;7749;49.964;7.890;2023-04-28T04:50:04;9.60;;;7.30;;
15295;SDS011;7749;49.964;7.890;2023-04-28T04:52:35;10.83;;;8.40;;
15295;SDS011;7749;49.964;7.890;2023-04-28T04:55:03;11.03;;;8.30;;
15295;SDS011;7749;49.964;7.890;2023-04-28T04:57:35;11.73;;;7.77;;
15295;SDS011;7749;49.964;7.890;2023-04-28T05:00:03;11.90;;;8.70;;
15295;SDS011;7749;49.964;7.890;2023-04-28T05:02:32;12.60;;;8.17;;
15295;SDS011;7749;49.964;7.890;2023-04-28T05:04:59;10.33;;;8.20;;
15295;SDS011;7749;49.964;7.890;2023-04-28T05:07:46;16.57;;;9.43;;
15295;SDS011;7749;49.964;7.890;2023-04-28T05:10:14;14.20;;;8.83;;
15295;SDS011;7749;49.964;7.890;2023-04-28T05:12:42;12.43;;;9.90;;
15295;SDS011;7749;49.964;7.890;2023-04-28T05:15:15;11.17;;;9.47;;
15295;SDS011;7749;49.964;7.890;2023-04-28T05:17:43;14.87;;;10.07;;
15295;SDS011;7749;49.964;7.890;2023-04-28T05:20:11;11.30;;;9.60;;
15295;SDS011;7749;49.964;7.890;2023-04-28T05:22:39;10.77;;;9.07;;
15295;SDS011;7749;49.964;7.890;2023-04-28T05:25:09;12.77;;;10.53;;
15295;SDS011;7749;49.964;7.890;2023-04-28T05:27:36;17.23;;;9.87;;
15295;SDS011;7749;49.964;7.890;2023-04-28T05:30:06;14.03;;;10.57;;
15295;SDS011;7749;49.964;7.890;2023-04-28T05:32:35;12.40;;;11.10;;
15295;SDS011;7749;49.964;7.890;2023-04-28T05:35:03;12.83;;;10.47;;
15295;SDS011;7749;49.964;7.890;2023-04-28T05:37:31;11.53;;;10.17;;
15295;SDS011;7749;49.964;7.890;2023-04-28T05:39:59;16.67;;;11.27;;
15295;SDS011;7749;49.964;7.890;2023-04-28T05:42:27;15.73;;;11.03;;
15295;SDS011;7749;49.964;7.890;2023-04-28T05:44:54;12.60;;;10.33;;
15295;SDS011;7749;49.964;7.890;2023-04-28T05:47:22;14.97;;;10.67;;
15295;SDS011;7749;49.964;7.890;2023-04-28T05:49:50;14.43;;;10.30;;
15295;SDS011;7749;49.964;7.890;2023-04-28T05:52:20;14.40;;;11.17;;
15295;SDS011;7749;49.964;7.890;2023-04-28T05:54:48;14.07;;;11.30;;
15295;SDS011;7749;49.964;7.890;2023-04-28T05:57:15;12.90;;;10.27;;
15295;SDS011;7749;49.964;7.890;2023-04-28T05:59:43;14.43;;;10.43;;
15295;SDS011;7749;49.964;7.890;2023-04-28T06:02:13;12.37;;;10.80;;
15295;SDS011;7749;49.964;7.890;2023-04-28T06:04:41;12.70;;;10.20;;
15295;SDS011;7749;49.964;7.890;2023-04-28T06:07:10;15.13;;;11.20;;
15295;SDS011;7749;49.964;7.890;2023-04-28T06:09:38;16.13;;;11.03;;
15295;SDS011;7749;49.964;7.890;2023-04-28T06:12:06;11.77;;;9.40;;
15295;SDS011;7749;49.964;7.890;2023-04-28T06:14:33;11.73;;;9.50;;
15295;SDS011;7749;49.964;7.890;2023-04-28T06:17:05;12.30;;;9.00;;
15295;SDS011;7749;49.964;7.890;2023-04-28T06:19:34;10.97;;;9.10;;
15295;SDS011;7749;49.964;7.890;2023-04-28T06:22:02;10.87;;;9.73;;
15295;SDS011;7749;49.964;7.890;2023-04-28T06:24:29;11.23;;;9.67;;
15295;SDS011;7749;49.964;7.890;2023-04-28T06:26:57;13.60;;;9.80;;
15295;SDS011;7749;49.964;7.890;2023-04-28T06:29:28;15.20;;;10.50;;
15295;SDS011;7749;49.964;7.890;2023-04-28T06:31:59;12.53;;;9.23;;
15295;SDS011;7749;49.964;7.890;2023-04-28T06:34:26;10.83;;;9.60;;
15295;SDS011;7749;49.964;7.890;2023-04-28T06:36:58;13.90;;;10.33;;
15295;SDS011;7749;49.964;7.890;2023-04-28T06:39:26;14.23;;;10.50;;
15295;SDS011;7749;49.964;7.890;2023-04-28T06:41:54;14.97;;;9.83;;
15295;SDS011;7749;49.964;7.890;2023-04-28T06:44:21;12.30;;;9.93;;
15295;SDS011;7749;49.964;7.890;2023-04-28T06:46:49;12.20;;;9.40;;
15295;SDS011;7749;49.964;7.890;2023-04-28T06:49:17;13.40;;;10.20;;
15295;SDS011;7749;49.964;7.890;2023-04-28T06:51:48;12.63;;;9.43;;
15295;SDS011;7749;49.964;7.890;2023-04-28T06:54:15;12.33;;;9.33;;
15295;SDS011;7749;49.964;7.890;2023-04-28T06:56:43;10.23;;;9.00;;
15295;SDS011;7749;49.964;7.890;2023-04-28T06:59:12;11.43;;;9.00;;
15295;SDS011;7749;49.964;7.890;2023-04-28T07:01:39;12.17;;;9.80;;
15295;SDS011;7749;49.964;7.890;2023-04-28T07:04:07;9.90;;;8.30;;
15295;SDS011;7749;49.964;7.890;2023-04-28T07:06:35;10.97;;;9.30;;
15295;SDS011;7749;49.964;7.890;2023-04-28T07:09:03;11.20;;;9.03;;
15295;SDS011;7749;49.964;7.890;2023-04-28T07:11:30;12.97;;;8.87;;
15295;SDS011;7749;49.964;7.890;2023-04-28T07:14:02;10.50;;;8.37;;
15295;SDS011;7749;49.964;7.890;2023-04-28T07:16:30;12.23;;;9.40;;
15295;SDS011;7749;49.964;7.890;2023-04-28T07:18:57;12.00;;;9.40;;
15295;SDS011;7749;49.964;7.890;2023-04-28T07:21:27;12.03;;;8.80;;
15295;SDS011;7749;49.964;7.890;2023-04-28T07:23:54;12.37;;;8.97;;
15295;SDS011;7749;49.964;7.890;2023-04-28T07:26:23;12.37;;;9.40;;
15295;SDS011;7749;49.964;7.890;2023-04-28T07:28:50;11.87;;;8.53;;
15295;SDS011;7749;49.964;7.890;2023-04-28T07:31:21;10.40;;;9.30;;
15295;SDS011;7749;49.964;7.890;2023-04-28T07:33:49;12.60;;;9.20;;
15295;SDS011;7749;49.964;7.890;2023-04-28T07:36:16;13.53;;;9.63;;
15295;SDS011;7749;49.964;7.890;2023-04-28T07:38:47;11.53;;;8.60;;
15295;SDS011;7749;49.964;7.890;2023-04-28T07:41:15;12.50;;;10.37;;
15295;SDS011;7749;49.964;7.890;2023-04-28T07:43:43;12.67;;;10.00;;
15295;SDS011;7749;49.964;7.890;2023-04-28T07:46:11;12.37;;;9.47;;
15295;SDS011;7749;49.964;7.890;2023-04-28T07:48:39;15.27;;;9.93;;
15295;SDS011;7749;49.964;7.890;2023-04-28T07:51:07;11.77;;;9.70;;
15295;SDS011;7749;49.964;7.890;2023-04-28T07:53:34;12.20;;;9.90;;
15295;SDS011;7749;49.964;7.890;2023-04-28T07:56:05;12.80;;;10.53;;
15295;SDS011;7749;49.964;7.890;2023-04-28T07:58:33;11.80;;;10.60;;
15295;SDS011;7749;49.964;7.890;2023-04-28T08:01:01;12.27;;;9.90;;
15295;SDS011;7749;49.964;7.890;2023-04-28T08:03:28;10.93;;;9.90;;
15295;SDS011;7749;49.964;7.890;2023-04-28T08:05:57;11.83;;;10.03;;
15295;SDS011;7749;49.964;7.890;2023-04-28T08:08:25;11.43;;;9.87;;
15295;SDS011;7749;49.964;7.890;2023-04-28T08:10:53;10.33;;;8.97;;
15295;SDS011;7749;49.964;7.890;2023-04-28T08:13:21;12.57;;;9.47;;
15295;SDS011;7749;49.964;7.890;2023-04-28T08:15:49;14.70;;;10.37;;
15295;SDS011;7749;49.964;7.890;2023-04-28T08:18:16;13.20;;;9.90;;
15295;SDS011;7749;49.964;7.890;2023-04-28T08:20:45;12.47;;;9.83;;
15295;SDS011;7749;49.964;7.890;2023-04-28T08:23:12;9.90;;;8.90;;
15295;SDS011;7749;49.964;7.890;2023-04-28T08:25:40;11.20;;;9.37;;
15295;SDS011;7749;49.964;7.890;2023-04-28T08:28:10;12.00;;;9.57;;
15295;SDS011;7749;49.964;7.890;2023-04-28T08:30:41;10.20;;;9.17;;
15295;SDS011;7749;49.964;7.890;2023-04-28T08:33:08;10.37;;;9.37;;
15295;SDS011;7749;49.964;7.890;2023-04-28T08:35:36;11.00;;;9.57;;
15295;SDS011;7749;49.964;7.890;2023-04-28T08:38:04;10.03;;;9.13;;
15295;SDS011;7749;49.964;7.890;2023-04-28T08:40:34;13.80;;;9.63;;
15295;SDS011;7749;49.964;7.890;2023-04-28T08:43:03;9.97;;;8.63;;
15295;SDS011;7749;49.964;7.890;2023-04-28T08:45:31;12.40;;;9.23;;
15295;SDS011;7749;49.964;7.890;2023-04-28T08:48:11;10.23;;;9.20;;
15295;SDS011;7749;49.964;7.890;2023-04-28T08:50:49;11.07;;;9.93;;
15295;SDS011;7749;49.964;7.890;2023-04-28T08:53:25;11.87;;;9.63;;
15295;SDS011;7749;49.964;7.890;2023-04-28T08:55:54;11.20;;;10.10;;
15295;SDS011;7749;49.964;7.890;2023-04-28T08:58:25;11.30;;;10.10;;
15295;SDS011;7749;49.964;7.890;2023-04-28T09:00:54;11.37;;;10.27;;
15295;SDS011;7749;49.964;7.890;2023-04-28T09:03:22;12.10;;;9.97;;
15295;SDS011;7749;49.964;7.890;2023-04-28T09:05:53;14.03;;;10.77;;
15295;SDS011;7749;49.964;7.890;2023-04-28T09:08:21;13.67;;;10.30;;
15295;SDS011;7749;49.964;7.890;2023-04-28T09:11:09;11.20;;;10.20;;
15295;SDS011;7749;49.964;7.890;2023-04-28T09:13:39;13.27;;;10.80;;
15295;SDS011;7749;49.964;7.890;2023-04-28T09:16:07;16.50;;;11.87;;
15295;SDS011;7749;49.964;7.890;2023-04-28T09:18:35;12.80;;;11.53;;
15295;SDS011;7749;49.964;7.890;2023-04-28T09:21:03;15.77;;;11.97;;
15295;SDS011;7749;49.964;7.890;2023-04-28T09:23:32;14.27;;;11.47;;
15295;SDS011;7749;49.964;7.890;2023-04-28T09:26:05;13.03;;;10.93;;
15295;SDS011;7749;49.964;7.890;2023-04-28T09:28:34;11.93;;;10.73;;
15295;SDS011;7749;49.964;7.890;2023-04-28T09:31:02;11.00;;;10.00;;
15295;SDS011;7749;49.964;7.890;2023-04-28T09:33:30;11.23;;;10.10;;
15295;SDS011;7749;49.964;7.890;2023-04-28T09:35:58;13.43;;;10.50;;
15295;SDS011;7749;49.964;7.890;2023-04-28T09:38:26;12.15;;;10.90;;
15295;SDS011;7749;49.964;7.890;2023-04-28T09:40:58;11.48;;;10.30;;
15295;SDS011;7749;49.964;7.890;2023-04-28T09:43:36;12.40;;;10.85;;
15295;SDS011;7749;49.964;7.890;2023-04-28T09:46:04;12.95;;;11.38;;
15295;SDS011;7749;49.964;7.890;2023-04-28T09:48:33;13.55;;;11.38;;
15295;SDS011;7749;49.964;7.890;2023-04-28T09:51:03;12.20;;;11.00;;
15295;SDS011;7749;49.964;7.890;2023-04-28T09:53:33;13.43;;;11.98;;
15295;SDS011;7749;49.964;7.890;2023-04-28T09:56:02;13.40;;;12.05;;
15295;SDS011;7749;49.964;7.890;2023-04-28T09:58:31;13.27;;;11.55;;
15295;SDS011;7749;49.964;7.890;2023-04-28T10:01:02;12.35;;;11.05;;
15295;SDS011;7749;49.964;7.890;2023-04-28T10:03:31;12.75;;;11.45;;
15295;SDS011;7749;49.964;7.890;2023-04-28T10:05:59;12.13;;;10.88;;
15295;SDS011;7749;49.964;7.890;2023-04-28T10:08:28;12.43;;;10.93;;
15295;SDS011;7749;49.964;7.890;2023-04-28T10:10:56;12.95;;;11.40;;
15295;SDS011;7749;49.964;7.890;2023-04-28T10:13:24;13.85;;;11.82;;
15295;SDS011;7749;49.964;7.890;2023-04-28T10:15:55;13.60;;;11.13;;
15295;SDS011;7749;49.964;7.890;2023-04-28T10:18:24;12.93;;;11.65;;
15295;SDS011;7749;49.964;7.890;2023-04-28T10:20:54;13.02;;;11.73;;
15295;SDS011;7749;49.964;7.890;2023-04-28T10:26:18;13.18;;;11.98;;
15295;SDS011;7749;49.964;7.890;2023-04-28T10:28:46;14.50;;;11.73;;
15295;SDS011;7749;49.964;7.890;2023-04-28T10:31:19;13.20;;;11.70;;
15295;SDS011;7749;49.964;7.890;2023-04-28T10:33:50;13.57;;;12.18;;
15295;SDS011;7749;49.964;7.890;2023-04-28T10:39:19;12.80;;;11.50;;
15295;SDS011;7749;49.964;7.890;2023-04-28T10:41:48;13.27;;;11.98;;
15295;SDS011;7749;49.964;7.890;2023-04-28T10:44:40;13.82;;;12.60;;
15295;SDS011;7749;49.964;7.890;2023-04-28T10:47:08;13.85;;;12.55;;
15295;SDS011;7749;49.964;7.890;2023-04-28T11:00:46;16.70;;;13.60;;
15295;SDS011;7749;49.964;7.890;2023-04-28T11:06:22;16.20;;;13.43;;
15295;SDS011;7749;49.964;7.890;2023-04-28T11:08:53;14.20;;;12.97;;
15295;SDS011;7749;49.964;7.890;2023-04-28T11:11:29;16.90;;;13.10;;
15295;SDS011;7749;49.964;7.890;2023-04-28T11:16:48;15.00;;;13.27;;
15295;SDS011;7749;49.964;7.890;2023-04-28T11:19:25;14.37;;;12.87;;
15295;SDS011;7749;49.964;7.890;2023-04-28T11:21:56;13.80;;;12.37;;
15295;SDS011;7749;49.964;7.890;2023-04-28T11:24:25;14.50;;;13.10;;
15295;SDS011;7749;49.964;7.890;2023-04-28T11:26:56;14.43;;;12.93;;
15295;SDS011;7749;49.964;7.890;2023-04-28T11:29:32;14.10;;;12.70;;
15295;SDS011;7749;49.964;7.890;2023-04-28T11:32:00;14.07;;;12.67;;
15295;SDS011;7749;49.964;7.890;2023-04-28T11:34:28;16.90;;;13.47;;
15295;SDS011;7749;49.964;7.890;2023-04-28T11:36:57;13.23;;;11.87;;
15295;SDS011;7749;49.964;7.890;2023-04-28T11:39:26;13.60;;;11.70;;
15295;SDS011;7749;49.964;7.890;2023-04-28T11:41:58;10.75;;;9.75;;
15295;SDS011;7749;49.964;7.890;2023-04-28T11:44:29;11.40;;;10.30;;
15295;SDS011;7749;49.964;7.890;2023-04-28T11:46:58;13.38;;;9.73;;
15295;SDS011;7749;49.964;7.890;2023-04-28T11:49:46;10.43;;;9.43;;
15295;SDS011;7749;49.964;7.890;2023-04-28T11:52:17;10.40;;;9.32;;
15295;SDS011;7749;49.964;7.890;2023-04-28T11:54:51;9.77;;;8.65;;
15295;SDS011;7749;49.964;7.890;2023-04-28T11:57:23;10.25;;;9.07;;
15295;SDS011;7749;49.964;7.890;2023-04-28T11:59:52;11.38;;;9.48;;
15295;SDS011;7749;49.964;7.890;2023-04-28T12:02:23;11.07;;;9.88;;
15295;SDS011;7749;49.964;7.890;2023-04-28T12:05:04;9.20;;;8.47;;
15295;SDS011;7749;49.964;7.890;2023-04-28T12:07:40;9.15;;;8.07;;
15295;SDS011;7749;49.964;7.890;2023-04-28T12:10:12;9.20;;;8.40;;
15295;SDS011;7749;49.964;7.890;2023-04-28T12:12:45;8.82;;;7.95;;
15295;SDS011;7749;49.964;7.890;2023-04-28T12:15:16;8.25;;;7.45;;
15295;SDS011;7749;49.964;7.890;2023-04-28T12:17:46;7.82;;;6.90;;
15295;SDS011;7749;49.964;7.890;2023-04-28T12:20:34;8.90;;;8.00;;
15295;SDS011;7749;49.964;7.890;2023-04-28T12:23:03;8.70;;;7.85;;
15295;SDS011;7749;49.964;7.890;2023-04-28T12:25:42;9.00;;;8.10;;
15295;SDS011;7749;49.964;7.890;2023-04-28T12:28:10;8.27;;;7.43;;
15295;SDS011;7749;49.964;7.890;2023-04-28T12:30:38;8.02;;;7.28;;
15295;SDS011;7749;49.964;7.890;2023-04-28T12:33:24;8.10;;;7.40;;
15295;SDS011;7749;49.964;7.890;2023-04-28T12:35:53;8.45;;;7.75;;
15295;SDS011;7749;49.964;7.890;2023-04-28T12:38:25;9.05;;;7.95;;
15295;SDS011;7749;49.964;7.890;2023-04-28T12:40:57;9.40;;;8.50;;
15295;SDS011;7749;49.964;7.890;2023-04-28T12:43:25;8.77;;;7.97;;
15295;SDS011;7749;49.964;7.890;2023-04-28T12:45:55;9.45;;;8.35;;
15295;SDS011;7749;49.964;7.890;2023-04-28T12:48:23;8.93;;;8.13;;
15295;SDS011;7749;49.964;7.890;2023-04-28T12:50:51;10.25;;;8.68;;
15295;SDS011;7749;49.964;7.890;2023-04-28T12:53:19;10.07;;;9.07;;
15295;SDS011;7749;49.964;7.890;2023-04-28T12:55:47;10.02;;;9.13;;
15295;SDS011;7749;49.964;7.890;2023-04-28T12:58:14;9.88;;;8.98;;
15295;SDS011;7749;49.964;7.890;2023-04-28T13:00:42;9.77;;;8.75;;
15295;SDS011;7749;49.964;7.890;2023-04-28T13:03:10;9.90;;;8.93;;
15295;SDS011;7749;49.964;7.890;2023-04-28T13:05:38;10.13;;;9.25;;
15295;SDS011;7749;49.964;7.890;2023-04-28T13:08:06;11.05;;;9.88;;
15295;SDS011;7749;49.964;7.890;2023-04-28T13:10:35;10.20;;;9.30;;
15295;SDS011;7749;49.964;7.890;2023-04-28T13:13:03;11.18;;;10.07;;
15295;SDS011;7749;49.964;7.890;2023-04-28T13:15:31;10.32;;;9.02;;
15295;SDS011;7749;49.964;7.890;2023-04-28T13:17:59;10.27;;;8.88;;
15295;SDS011;7749;49.964;7.890;2023-04-28T13:20:27;11.32;;;10.23;;
15295;SDS011;7749;49.964;7.890;2023-04-28T13:22:54;11.70;;;10.60;;
15295;SDS011;7749;49.964;7.890;2023-04-28T13:25:22;12.18;;;11.05;;
15295;SDS011;7749;49.964;7.890;2023-04-28T13:27:50;11.68;;;10.48;;
15295;SDS011;7749;49.964;7.890;2023-04-28T13:30:17;12.88;;;11.60;;
15295;SDS011;7749;49.964;7.890;2023-04-28T13:32:45;11.30;;;10.25;;
15295;SDS011;7749;49.964;7.890;2023-04-28T13:35:13;11.10;;;10.10;;
15295;SDS011;7749;49.964;7.890;2023-04-28T13:37:43;11.30;;;10.23;;
15295;SDS011;7749;49.964;7.890;2023-04-28T13:40:12;10.80;;;9.70;;
15295;SDS011;7749;49.964;7.890;2023-04-28T13:42:39;10.98;;;9.95;;
15295;SDS011;7749;49.964;7.890;2023-04-28T13:45:07;13.82;;;12.63;;
15295;SDS011;7749;49.964;7.890;2023-04-28T13:47:35;11.90;;;10.77;;
15295;SDS011;7749;49.964;7.890;2023-04-28T13:50:05;10.60;;;9.68;;
15295;SDS011;7749;49.964;7.890;2023-04-28T13:52:33;11.70;;;10.70;;
15295;SDS011;7749;49.964;7.890;2023-04-28T13:55:02;10.93;;;10.02;;
15295;SDS011;7749;49.964;7.890;2023-04-28T13:57:30;11.05;;;10.05;;
15295;SDS011;7749;49.964;7.890;2023-04-28T13:59:58;9.98;;;9.18;;
15295;SDS011;7749;49.964;7.890;2023-04-28T14:02:25;10.18;;;9.18;;
15295;SDS011;7749;49.964;7.890;2023-04-28T14:04:53;10.30;;;9.30;;
15295;SDS011;7749;49.964;7.890;2023-04-28T14:07:21;10.40;;;9.50;;
15295;SDS011;7749;49.964;7.890;2023-04-28T14:09:49;11.32;;;10.23;;
15295;SDS011;7749;49.964;7.890;2023-04-28T14:12:16;11.32;;;10.32;;
15295;SDS011;7749;49.964;7.890;2023-04-28T14:14:45;10.52;;;9.63;;
15295;SDS011;7749;49.964;7.890;2023-04-28T14:17:14;10.35;;;9.45;;
15295;SDS011;7749;49.964;7.890;2023-04-28T14:19:44;11.07;;;10.00;;
15295;SDS011;7749;49.964;7.890;2023-04-28T14:22:12;10.45;;;9.65;;
15295;SDS011;7749;49.964;7.890;2023-04-28T14:24:40;10.68;;;9.80;;
15295;SDS011;7749;49.964;7.890;2023-04-28T14:27:12;11.52;;;10.43;;
15295;SDS011;7749;49.964;7.890;2023-04-28T14:29:41;10.23;;;9.32;;
15295;SDS011;7749;49.964;7.890;2023-04-28T14:32:08;10.25;;;9.15;;
15295;SDS011;7749;49.964;7.890;2023-04-28T14:34:36;10.43;;;9.52;;
15295;SDS011;7749;49.964;7.890;2023-04-28T14:37:04;10.07;;;9.18;;
15295;SDS011;7749;49.964;7.890;2023-04-28T14:39:32;10.88;;;9.80;;
15295;SDS011;7749;49.964;7.890;2023-04-28T14:41:59;10.45;;;9.55;;
15295;SDS011;7749;49.964;7.890;2023-04-28T14:44:27;10.18;;;9.20;;
15295;SDS011;7749;49.964;7.890;2023-04-28T14:46:55;10.75;;;8.80;;
15295;SDS011;7749;49.964;7.890;2023-04-28T14:49:23;8.82;;;7.82;;
15295;SDS011;7749;49.964;7.890;2023-04-28T14:51:51;7.85;;;7.15;;
15295;SDS011;7749;49.964;7.890;2023-04-28T14:54:20;6.82;;;6.30;;
15295;SDS011;7749;49.964;7.890;2023-04-28T14:56:48;7.65;;;6.95;;
15295;SDS011;7749;49.964;7.890;2023-04-28T14:59:16;8.88;;;8.07;;
15295;SDS011;7749;49.964;7.890;2023-04-28T15:01:44;8.90;;;8.20;;
15295;SDS011;7749;49.964;7.890;2023-04-28T15:04:16;9.43;;;8.73;;
15295;SDS011;7749;49.964;7.890;2023-04-28T15:06:44;8.77;;;8.07;;
15295;SDS011;7749;49.964;7.890;2023-04-28T15:09:12;11.32;;;10.38;;
15295;SDS011;7749;49.964;7.890;2023-04-28T15:11:40;10.75;;;9.85;;
15295;SDS011;7749;49.964;7.890;2023-04-28T15:14:11;9.60;;;8.80;;
15295;SDS011;7749;49.964;7.890;2023-04-28T15:16:39;9.32;;;8.63;;
15295;SDS011;7749;49.964;7.890;2023-04-28T15:19:06;8.70;;;8.00;;
15295;SDS011;7749;49.964;7.890;2023-04-28T15:21:34;9.70;;;9.00;;
15295;SDS011;7749;49.964;7.890;2023-04-28T15:24:02;9.00;;;8.30;;
15295;SDS011;7749;49.964;7.890;2023-04-28T15:26:29;7.85;;;7.25;;
15295;SDS011;7749;49.964;7.890;2023-04-28T15:28:57;8.73;;;8.05;;
15295;SDS011;7749;49.964;7.890;2023-04-28T15:31:26;7.63;;;7.03;;
15295;SDS011;7749;49.964;7.890;2023-04-28T15:33:54;7.22;;;6.72;;
15295;SDS011;7749;49.964;7.890;2023-04-28T15:36:24;4.18;;;3.88;;